Terminal Aerodrome Forecast
Issued by NWS Green Bay, WI

Home | Current Version | Previous Version | Graphics & Text | Print | Product List | Glossary On
Versions: 1 2 3 4 5 6 7 8 9 10 11 12 13 14 15 16 17 18 19 20 21 22 23 24 25 26 27 28 29 30 31 32 33 34 35 36 37 38 39 40 41 42 43 44 45
000
FTUS43 KGRB 151900 AAA
TAFGRB
TAF AMD
KGRB 151902Z 1519/1618 18005KT 1SM BR OVC005
      TEMPO 1519/1521 1/2SM FG OVC003
     FM152100 18006KT 1SM BR OVC005
      TEMPO 1521/1524 2SM -RA BR OVC004
     FM160000 15006KT 1SM -RA BR OVC004
     FM160700 05005KT 1SM -RA BR OVC004
     FM161200 01007KT 2SM -RASN BR OVC007
     FM161500 35012KT 2SM -SN BR OVC007=

USA.gov is the U.S. government's official web portal to all federal, state and local government web resources and services.